McFadden, Wyoming
Current Conditions -  °F | °C
As of 1:35 AM on Saturday 29 Nov 2014 (Local Time) from KEHY Reporting Station
Scattered Clouds Scattered Clouds  
Wind Chill: 34°   Ceiling: Unl
Heat Index: 45°   Visibility: 10mi
Dew Point:   Wind: 32mph
Humidity: 21%   Direction: 210°SSW
Pressure: 29.72"   Gusts: 46mph
Location:  41.6691°N, 106.011°W
Report Text: KEHY 290835Z AUTO 21028G40KT 10SM SCT120 07/M14 A2972 RMK AO2
Loading
Personal Weather Stations






























Interactive Weather Map New forecast layout! Learn more

10-Day Weather Forecast

Advertisements
Track Severe Weather on mobile